Time;durP1;ratioP1;P1;durP2;ratioP2;P2;SDS_P1;SDS_P2;PMS_P1;PMS_P2;Temp;Humidity;BMP_temperature;BMP_pressure;BME280_temperature;BME280_humidity;BME280_pressure;Samples;Min_cycle;Max_cycle;Signal;HPM_P1;HPM_P2
2021/12/02 00:02:15;;;;;;;1.60;0.60;;;6.30;99.90;;;;;;5037066;28;20239;-54
2021/12/02 00:04:43;;;;;;;2.60;0.73;;;6.00;99.90;;;;;;5038704;28;20221;-54
2021/12/02 00:07:11;;;;;;;2.23;0.40;;;6.10;99.90;;;;;;5035909;28;20346;-53
2021/12/02 00:09:38;;;;;;;4.73;0.50;;;6.10;99.90;;;;;;5037224;28;20254;-53
2021/12/02 00:12:06;;;;;;;1.30;0.40;;;5.90;99.90;;;;;;5036829;28;20203;-52
2021/12/02 00:14:43;;;;;;;2.27;0.50;;;6.00;99.90;;;;;;5035852;28;20254;-53
2021/12/02 00:17:17;;;;;;;2.73;0.60;;;6.10;99.90;;;;;;5036759;28;20249;-53
2021/12/02 00:23:06;;;;;;;1.00;0.50;;;5.90;99.90;;;;;;5013950;28;20236;-54
2021/12/02 00:25:33;;;;;;;1.80;0.57;;;5.90;99.90;;;;;;5037253;28;20239;-53
2021/12/02 00:28:01;;;;;;;3.40;0.57;;;6.10;99.90;;;;;;5034129;28;20229;-54
2021/12/02 00:30:29;;;;;;;1.00;0.27;;;6.20;99.90;;;;;;5039297;28;20320;-52
2021/12/02 00:32:57;;;;;;;3.13;0.60;;;6.30;99.90;;;;;;5038776;28;20251;-54
2021/12/02 00:35:24;;;;;;;3.60;0.60;;;6.30;99.90;;;;;;5036519;28;20203;-55
2021/12/02 00:37:53;;;;;;;1.33;0.30;;;6.20;99.90;;;;;;5038489;28;20295;-53
2021/12/02 00:40:20;;;;;;;2.50;0.73;;;6.10;99.90;;;;;;5039141;28;20239;-55
2021/12/02 00:42:48;;;;;;;0.97;0.40;;;5.90;99.90;;;;;;5032497;28;20332;-53
2021/12/02 00:45:15;;;;;;;2.30;0.40;;;5.90;99.90;;;;;;5037257;28;20287;-54
2021/12/02 00:47:42;;;;;;;2.03;1.27;;;6.00;99.90;;;;;;5038839;28;20223;-53
2021/12/02 00:50:09;;;;;;;2.37;0.50;;;6.10;99.90;;;;;;5019645;28;20209;-54
2021/12/02 00:52:39;;;;;;;2.30;0.63;;;6.00;99.90;;;;;;5038878;28;20603;-53
2021/12/02 00:55:08;;;;;;;3.07;0.60;;;6.10;99.90;;;;;;5037552;28;20227;-53
2021/12/02 00:57:39;;;;;;;2.93;0.47;;;6.10;99.90;;;;;;5034272;28;20199;-53
2021/12/02 01:00:07;;;;;;;3.27;0.60;;;6.10;99.90;;;;;;5036203;28;20207;-52
2021/12/02 01:02:34;;;;;;;4.97;0.80;;;6.00;99.90;;;;;;5037650;28;20209;-54
2021/12/02 01:05:02;;;;;;;3.50;0.90;;;6.10;99.90;;;;;;5036334;28;20208;-54
2021/12/02 01:07:29;;;;;;;2.83;0.80;;;6.10;99.90;;;;;;5035021;28;20268;-54
2021/12/02 01:09:57;;;;;;;3.00;0.70;;;5.80;99.90;;;;;;5036375;28;20301;-54
2021/12/02 01:12:25;;;;;;;2.87;0.70;;;6.00;99.90;;;;;;5036229;28;20203;-54
2021/12/02 01:14:52;;;;;;;2.43;0.60;;;6.10;99.90;;;;;;5035901;28;20204;-53
2021/12/02 01:17:19;;;;;;;3.87;0.70;;;6.00;99.90;;;;;;5034305;28;20228;-54
2021/12/02 01:19:46;;;;;;;2.93;0.83;;;5.90;99.90;;;;;;5035335;28;20234;-54
2021/12/02 01:22:13;;;;;;;3.33;0.60;;;5.70;99.90;;;;;;5034708;28;20724;-53
2021/12/02 01:24:42;;;;;;;3.90;0.50;;;6.00;99.90;;;;;;5033725;28;20236;-54
2021/12/02 01:27:11;;;;;;;4.07;0.83;;;6.20;99.90;;;;;;5035152;28;20200;-55
2021/12/02 01:29:40;;;;;;;6.10;0.70;;;6.10;99.90;;;;;;5035145;28;20193;-53
2021/12/02 01:32:09;;;;;;;4.93;0.83;;;5.90;99.90;;;;;;5036533;28;20233;-53
2021/12/02 01:34:37;;;;;;;3.53;0.60;;;6.00;99.90;;;;;;5035483;28;20200;-54
2021/12/02 01:37:09;;;;;;;3.10;0.50;;;6.20;99.90;;;;;;5034301;28;20211;-53
2021/12/02 01:39:37;;;;;;;6.40;0.43;;;6.20;99.90;;;;;;5036720;28;20231;-53
2021/12/02 01:42:06;;;;;;;1.50;0.40;;;6.10;99.90;;;;;;5037915;28;20336;-54
2021/12/02 01:44:40;;;;;;;1.07;0.30;;;5.90;99.90;;;;;;5038959;28;20244;-53
2021/12/02 01:47:13;;;;;;;2.23;0.50;;;5.90;99.90;;;;;;5040193;28;20603;-54
2021/12/02 01:49:42;;;;;;;3.73;0.97;;;6.00;99.90;;;;;;5038436;28;20227;-54
2021/12/02 01:52:13;;;;;;;3.27;0.50;;;6.00;99.90;;;;;;5038358;28;20223;-55
2021/12/02 01:54:46;;;;;;;4.63;0.70;;;6.00;99.90;;;;;;5040664;28;20590;-56
2021/12/02 01:57:32;;;;;;;3.40;0.60;;;6.00;99.90;;;;;;5038963;28;20285;-53
2021/12/02 02:00:07;;;;;;;3.73;0.33;;;6.10;99.90;;;;;;5039874;28;20303;-54
2021/12/02 02:02:37;;;;;;;2.87;0.60;;;5.70;99.90;;;;;;5036197;28;20200;-54
2021/12/02 02:05:11;;;;;;;1.37;0.40;;;5.50;99.90;;;;;;5038380;28;20239;-54
2021/12/02 02:08:05;;;;;;;4.83;0.63;;;5.30;99.90;;;;;;5038869;28;20208;-54
2021/12/02 02:10:37;;;;;;;1.73;0.60;;;5.20;99.90;;;;;;5037676;28;20208;-53
2021/12/02 02:13:07;;;;;;;0.97;0.40;;;5.10;99.90;;;;;;5037808;28;20212;-53
2021/12/02 02:15:37;;;;;;;1.87;0.60;;;5.10;99.90;;;;;;5038517;28;20218;-55
2021/12/02 02:18:20;;;;;;;3.47;0.50;;;5.10;99.90;;;;;;5020258;28;20215;-55
2021/12/02 02:21:01;;;;;;;5.73;0.90;;;5.10;99.90;;;;;;5037911;28;20234;-55
2021/12/02 02:23:31;;;;;;;4.07;0.90;;;5.10;99.90;;;;;;5039526;28;20265;-53
2021/12/02 02:25:59;;;;;;;6.27;0.93;;;5.00;99.90;;;;;;5038674;28;20192;-54
2021/12/02 02:28:28;;;;;;;3.60;0.90;;;5.20;99.90;;;;;;5037803;28;20235;-54
2021/12/02 02:30:55;;;;;;;2.77;0.77;;;5.20;99.90;;;;;;5038033;28;20309;-54
2021/12/02 02:33:23;;;;;;;3.97;0.80;;;5.20;99.90;;;;;;5039527;28;20204;-53
2021/12/02 02:35:50;;;;;;;1.77;0.57;;;5.30;99.90;;;;;;5039609;28;20243;-54
2021/12/02 02:38:18;;;;;;;7.27;0.77;;;5.30;99.90;;;;;;5037669;28;20346;-54
2021/12/02 02:40:47;;;;;;;3.30;0.60;;;5.30;99.90;;;;;;5038071;28;20251;-52
2021/12/02 02:43:23;;;;;;;3.53;0.60;;;5.30;99.90;;;;;;5037639;28;20362;-55
2021/12/02 02:45:50;;;;;;;3.80;0.63;;;5.30;99.90;;;;;;5036219;28;20262;-53
2021/12/02 02:48:18;;;;;;;1.17;0.50;;;5.40;99.90;;;;;;5021452;28;20270;-52
2021/12/02 02:50:45;;;;;;;1.73;0.50;;;5.40;99.90;;;;;;5035185;28;20200;-54
2021/12/02 02:53:20;;;;;;;4.47;0.70;;;5.50;99.90;;;;;;5037593;28;20251;-54
2021/12/02 03:04:09;;;;;;;5.23;0.87;;;5.60;99.90;;;;;;5036592;28;20582;-53
2021/12/02 03:09:08;;;;;;;5.67;1.23;;;5.70;99.90;;;;;;5037312;28;20196;-54
2021/12/02 03:11:42;;;;;;;5.23;0.80;;;5.60;99.90;;;;;;5021772;28;20224;-56
2021/12/02 03:14:16;;;;;;;3.97;0.80;;;5.70;99.90;;;;;;5037585;28;20237;-53
2021/12/02 03:16:44;;;;;;;3.33;0.60;;;5.70;99.90;;;;;;5036224;28;20220;-54
2021/12/02 03:19:29;;;;;;;3.10;0.50;;;5.80;99.90;;;;;;5038169;28;20261;-53
2021/12/02 03:21:58;;;;;;;2.53;0.60;;;5.80;99.90;;;;;;5037696;28;20263;-54
2021/12/02 03:24:25;;;;;;;3.33;0.73;;;5.70;99.90;;;;;;5039054;28;20568;-53
2021/12/02 03:26:52;;;;;;;5.60;0.60;;;5.70;99.90;;;;;;5023349;28;20208;-54
2021/12/02 03:29:19;;;;;;;3.40;0.47;;;5.70;99.90;;;;;;5034736;28;20238;-53
2021/12/02 03:31:46;;;;;;;6.47;0.70;;;5.80;99.90;;;;;;5036568;28;20297;-53
2021/12/02 03:34:13;;;;;;;4.50;1.10;;;5.80;99.90;;;;;;5037556;28;20211;-54
2021/12/02 03:36:40;;;;;;;2.47;0.50;;;5.80;99.90;;;;;;5037169;28;20704;-55
2021/12/02 03:39:09;;;;;;;6.83;0.70;;;5.90;99.90;;;;;;5037773;28;22962;-54
2021/12/02 03:41:38;;;;;;;2.83;0.60;;;5.90;99.90;;;;;;5036931;28;20251;-52
2021/12/02 03:44:06;;;;;;;5.90;0.50;;;5.80;99.90;;;;;;5017514;28;20312;-53
2021/12/02 03:46:33;;;;;;;3.13;1.13;;;5.90;99.90;;;;;;5036115;28;20602;-53
2021/12/02 03:49:00;;;;;;;1.43;0.50;;;5.90;99.90;;;;;;5036676;28;20613;-53
2021/12/02 03:51:27;;;;;;;4.30;0.50;;;5.80;99.90;;;;;;5036153;28;20200;-53
2021/12/02 03:53:54;;;;;;;5.60;0.60;;;5.70;99.90;;;;;;5037786;28;20296;-51
2021/12/02 03:56:21;;;;;;;1.57;0.80;;;5.80;99.90;;;;;;5038005;28;20203;-55
2021/12/02 03:58:50;;;;;;;3.20;0.83;;;5.70;99.90;;;;;;5036798;28;20286;-54
2021/12/02 04:01:17;;;;;;;2.53;0.70;;;5.50;99.90;;;;;;5036417;28;20224;-53
2021/12/02 04:03:45;;;;;;;3.10;0.70;;;5.70;99.90;;;;;;5019054;28;20565;-52
2021/12/02 04:06:12;;;;;;;3.93;0.60;;;5.70;99.90;;;;;;5037101;28;20228;-52
2021/12/02 04:11:35;;;;;;;3.80;0.60;;;5.80;99.90;;;;;;5036775;28;20200;-53
2021/12/02 04:16:39;;;;;;;1.53;0.60;;;6.00;99.90;;;;;;5038165;28;20196;-54
2021/12/02 04:19:10;;;;;;;1.47;0.47;;;5.50;99.90;;;;;;5038097;28;20239;-55
2021/12/02 04:21:39;;;;;;;2.93;0.33;;;5.20;99.90;;;;;;5040234;28;20282;-54
2021/12/02 04:24:06;;;;;;;1.87;0.47;;;5.20;99.90;;;;;;5037538;28;20672;-53
2021/12/02 04:26:32;;;;;;;1.30;0.30;;;5.20;99.90;;;;;;5037183;28;20294;-53
2021/12/02 04:28:59;;;;;;;3.03;0.40;;;5.20;99.90;;;;;;5036313;28;20196;-54
2021/12/02 04:31:26;;;;;;;3.63;0.37;;;5.00;99.90;;;;;;5037737;28;20597;-52
2021/12/02 04:33:53;;;;;;;3.17;0.50;;;5.00;99.90;;;;;;5036731;28;20231;-53
2021/12/02 04:36:20;;;;;;;0.60;0.40;;;5.00;99.90;;;;;;5039907;28;20613;-51
2021/12/02 04:38:47;;;;;;;4.87;0.80;;;5.10;99.90;;;;;;5038154;28;20287;-55
2021/12/02 04:41:16;;;;;;;1.53;0.47;;;5.10;99.90;;;;;;5038286;28;20644;-54
2021/12/02 04:43:43;;;;;;;4.90;0.90;;;5.20;99.90;;;;;;5036567;28;20621;-54
2021/12/02 04:46:10;;;;;;;3.40;0.73;;;5.20;99.90;;;;;;5035693;28;20219;-53
2021/12/02 04:48:37;;;;;;;3.17;0.60;;;5.20;99.90;;;;;;5036334;28;20375;-53
2021/12/02 04:51:03;;;;;;;2.00;0.60;;;5.20;99.90;;;;;;5037069;28;20279;-54
2021/12/02 04:53:30;;;;;;;3.33;0.60;;;5.20;99.90;;;;;;5034722;28;20204;-54
2021/12/02 04:55:57;;;;;;;3.13;0.70;;;5.20;99.90;;;;;;5037464;28;20942;-53
2021/12/02 04:58:24;;;;;;;2.97;0.77;;;5.20;99.90;;;;;;5036246;28;20514;-54
2021/12/02 05:00:51;;;;;;;7.37;1.43;;;5.20;99.90;;;;;;5037472;28;20205;-54
2021/12/02 05:03:18;;;;;;;5.27;1.87;;;4.90;99.90;;;;;;5036405;28;20230;-54
2021/12/02 05:05:46;;;;;;;3.17;0.80;;;4.90;99.90;;;;;;5037116;28;20512;-52
2021/12/02 05:08:12;;;;;;;3.33;0.70;;;4.80;99.90;;;;;;5036641;28;20211;-53
2021/12/02 05:10:39;;;;;;;6.43;0.63;;;4.80;99.90;;;;;;5038054;28;20247;-52
2021/12/02 05:13:06;;;;;;;1.80;0.50;;;4.80;99.90;;;;;;5035869;28;20786;-53
2021/12/02 05:15:33;;;;;;;2.83;0.67;;;4.90;99.90;;;;;;5036166;28;20200;-53
2021/12/02 05:18:00;;;;;;;2.87;0.77;;;4.90;99.90;;;;;;5042558;28;20226;-53
2021/12/02 05:20:27;;;;;;;2.93;0.50;;;4.90;99.90;;;;;;5040411;28;20363;-52
2021/12/02 05:22:54;;;;;;;2.40;0.60;;;4.80;99.90;;;;;;5041756;28;20256;-53
2021/12/02 05:25:21;;;;;;;2.83;0.77;;;4.90;99.90;;;;;;5040488;28;20745;-53
2021/12/02 05:27:47;;;;;;;3.47;0.50;;;5.00;99.90;;;;;;5036698;28;20262;-53
2021/12/02 05:30:14;;;;;;;1.47;0.70;;;5.00;99.90;;;;;;5038463;28;20667;-51
2021/12/02 05:32:41;;;;;;;1.87;0.80;;;5.00;99.90;;;;;;5039045;28;20208;-54
2021/12/02 05:35:08;;;;;;;1.80;0.60;;;5.00;99.90;;;;;;5038698;28;20624;-53
2021/12/02 05:37:35;;;;;;;4.33;0.73;;;4.80;99.90;;;;;;5039513;28;20331;-53
2021/12/02 05:40:03;;;;;;;1.47;0.60;;;4.80;99.90;;;;;;5040727;28;20687;-55
2021/12/02 05:42:30;;;;;;;1.13;0.40;;;4.80;99.90;;;;;;5039096;28;20354;-53
2021/12/02 05:44:57;;;;;;;2.47;0.40;;;4.80;99.90;;;;;;5038562;28;22132;-54
2021/12/02 05:47:24;;;;;;;2.73;0.50;;;4.40;99.90;;;;;;5037811;28;20295;-54
2021/12/02 05:49:50;;;;;;;1.60;0.50;;;4.30;99.90;;;;;;5037059;28;20192;-54
2021/12/02 05:52:19;;;;;;;1.43;0.13;;;4.30;99.90;;;;;;5036600;28;20224;-53
2021/12/02 05:54:46;;;;;;;1.23;0.30;;;4.20;99.90;;;;;;5037135;28;20200;-53
2021/12/02 05:57:13;;;;;;;0.77;0.30;;;4.50;99.90;;;;;;5041102;28;20227;-53
2021/12/02 05:59:40;;;;;;;5.33;0.73;;;4.50;99.90;;;;;;5020310;28;20757;-52
2021/12/02 06:02:07;;;;;;;3.27;0.50;;;4.50;99.90;;;;;;5038445;28;20682;-54
2021/12/02 06:04:38;;;;;;;3.00;0.60;;;4.40;99.90;;;;;;5038609;28;20234;-54
2021/12/02 06:07:05;;;;;;;3.20;0.40;;;4.20;99.90;;;;;;5039407;28;20196;-53
2021/12/02 06:09:32;;;;;;;3.73;0.40;;;4.30;99.90;;;;;;5038384;28;20309;-54
2021/12/02 06:12:00;;;;;;;2.40;0.50;;;4.10;99.90;;;;;;5035091;28;20276;-55
2021/12/02 06:14:26;;;;;;;0.67;0.20;;;4.30;99.90;;;;;;5038485;28;20589;-54
2021/12/02 06:16:53;;;;;;;3.80;0.50;;;4.30;99.90;;;;;;5038985;28;20783;-54
2021/12/02 06:19:20;;;;;;;1.93;0.50;;;4.40;99.90;;;;;;5038486;28;20205;-54
2021/12/02 06:21:48;;;;;;;2.90;0.30;;;4.50;99.90;;;;;;5037890;28;20310;-54
2021/12/02 06:24:15;;;;;;;1.67;0.40;;;4.20;99.90;;;;;;5038283;28;20514;-55
2021/12/02 06:26:42;;;;;;;0.93;0.30;;;4.00;99.90;;;;;;5036978;28;20293;-54
2021/12/02 06:29:09;;;;;;;3.20;0.70;;;4.30;99.90;;;;;;5035894;28;20291;-52
2021/12/02 06:31:36;;;;;;;2.17;0.60;;;4.40;99.90;;;;;;5036800;28;20346;-54
2021/12/02 06:34:03;;;;;;;7.53;0.90;;;4.50;99.90;;;;;;5033317;28;20200;-53
2021/12/02 06:36:30;;;;;;;4.43;0.50;;;4.50;99.90;;;;;;5036462;28;20584;-56
2021/12/02 06:38:59;;;;;;;1.33;0.50;;;4.40;99.90;;;;;;5036531;28;20311;-53
2021/12/02 06:41:26;;;;;;;1.53;0.77;;;4.40;99.90;;;;;;5038148;28;20248;-54
2021/12/02 06:43:53;;;;;;;0.93;0.30;;;4.50;99.90;;;;;;5037348;28;20259;-55
2021/12/02 06:46:20;;;;;;;1.47;0.53;;;4.60;99.90;;;;;;5036804;28;20760;-53
2021/12/02 06:48:49;;;;;;;2.10;0.50;;;4.40;99.90;;;;;;5022517;28;20326;-53
2021/12/02 06:51:18;;;;;;;2.60;0.50;;;4.10;99.90;;;;;;5037759;28;20220;-51
2021/12/02 06:53:48;;;;;;;5.47;0.50;;;4.10;99.90;;;;;;5037880;28;20200;-54
2021/12/02 06:56:15;;;;;;;0.77;0.40;;;4.20;99.90;;;;;;5041102;28;20967;-54
2021/12/02 06:58:42;;;;;;;2.00;0.43;;;4.20;99.90;;;;;;5036686;28;20218;-53
2021/12/02 07:01:09;;;;;;;1.23;0.43;;;4.10;99.90;;;;;;5032922;28;20544;-54
2021/12/02 07:03:36;;;;;;;5.57;0.73;;;4.30;99.90;;;;;;5035913;28;20200;-53
2021/12/02 07:06:03;;;;;;;2.83;0.87;;;4.30;99.90;;;;;;5036523;28;20251;-54
2021/12/02 07:08:31;;;;;;;1.90;0.70;;;4.40;99.90;;;;;;5036673;28;20532;-54
2021/12/02 07:10:59;;;;;;;2.57;0.50;;;4.50;99.90;;;;;;5038572;28;20205;-54
2021/12/02 07:13:26;;;;;;;3.13;0.73;;;4.40;99.90;;;;;;5019451;28;20227;-53
2021/12/02 07:15:54;;;;;;;3.50;0.67;;;4.20;99.90;;;;;;5034253;28;20302;-54
2021/12/02 07:18:21;;;;;;;2.70;0.70;;;4.40;99.90;;;;;;5036822;28;20254;-54
2021/12/02 07:20:50;;;;;;;1.10;0.63;;;4.30;99.90;;;;;;5038236;28;20204;-53
2021/12/02 07:23:19;;;;;;;2.83;0.70;;;4.20;99.90;;;;;;5035443;28;20564;-53
2021/12/02 07:25:48;;;;;;;4.53;0.90;;;4.20;99.90;;;;;;5034319;28;20242;-54
2021/12/02 07:28:16;;;;;;;2.50;0.60;;;4.30;99.90;;;;;;5036752;28;20594;-55
2021/12/02 07:30:44;;;;;;;2.47;0.60;;;4.30;99.90;;;;;;5038670;28;20224;-54
2021/12/02 07:33:14;;;;;;;3.07;0.80;;;4.50;99.90;;;;;;5037332;28;20259;-51
2021/12/02 07:35:41;;;;;;;8.17;0.80;;;4.50;99.90;;;;;;5024319;28;20203;-56
2021/12/02 07:38:08;;;;;;;7.10;0.87;;;4.50;99.90;;;;;;5036893;28;20211;-54
2021/12/02 07:40:38;;;;;;;5.30;0.73;;;4.60;99.90;;;;;;5034660;28;20238;-52
2021/12/02 07:43:05;;;;;;;5.90;1.37;;;4.40;99.90;;;;;;5036539;28;20243;-60
2021/12/02 07:45:36;;;;;;;4.80;0.93;;;4.50;99.90;;;;;;5036564;28;20224;-62
2021/12/02 07:48:05;;;;;;;2.20;0.40;;;4.60;99.90;;;;;;5036990;28;20246;-60
2021/12/02 07:50:36;;;;;;;1.67;0.47;;;4.50;99.90;;;;;;5035748;28;20208;-61
2021/12/02 07:53:05;;;;;;;1.07;0.57;;;4.20;99.90;;;;;;5036201;28;20256;-61
2021/12/02 07:55:37;;;;;;;2.63;0.60;;;4.20;99.90;;;;;;5032136;28;20206;-53
2021/12/02 07:58:09;;;;;;;2.10;0.70;;;4.00;99.90;;;;;;5036809;28;20214;-53
2021/12/02 08:00:36;;;;;;;5.47;0.70;;;3.90;99.90;;;;;;5036816;28;20208;-52
2021/12/02 08:03:09;;;;;;;6.20;1.20;;;3.50;99.90;;;;;;5037622;28;20258;-54
2021/12/02 08:05:36;;;;;;;2.23;0.60;;;3.50;99.90;;;;;;5029706;28;20248;-52
2021/12/02 08:08:03;;;;;;;2.63;0.90;;;3.70;99.90;;;;;;5030199;28;20256;-55
2021/12/02 08:10:30;;;;;;;3.03;0.50;;;3.80;99.90;;;;;;5034252;28;20272;-54
2021/12/02 08:12:59;;;;;;;1.50;0.63;;;3.70;99.90;;;;;;5034052;28;20232;-53
2021/12/02 08:15:28;;;;;;;1.80;0.50;;;3.70;99.90;;;;;;5035621;28;20201;-52
2021/12/02 08:17:56;;;;;;;2.77;0.70;;;3.80;99.90;;;;;;5035420;28;20623;-53
2021/12/02 08:20:25;;;;;;;2.50;0.83;;;3.90;99.90;;;;;;5035552;28;20235;-52
2021/12/02 08:22:52;;;;;;;2.57;0.60;;;3.90;99.90;;;;;;5035608;28;20770;-52
2021/12/02 08:25:20;;;;;;;1.97;0.60;;;3.90;99.90;;;;;;5023091;28;20301;-53
2021/12/02 08:27:49;;;;;;;1.00;0.60;;;3.90;99.90;;;;;;5036073;28;20211;-52
2021/12/02 08:30:19;;;;;;;3.60;0.77;;;4.10;99.90;;;;;;5034168;28;20295;-53
2021/12/02 08:32:46;;;;;;;4.47;0.83;;;4.50;99.90;;;;;;5033928;28;20593;-53
2021/12/02 08:35:14;;;;;;;5.17;0.93;;;4.90;99.90;;;;;;5033297;28;20212;-57
2021/12/02 08:37:45;;;;;;;1.63;0.73;;;5.00;99.90;;;;;;5033106;28;20196;-54
2021/12/02 08:40:16;;;;;;;3.60;0.70;;;5.00;99.90;;;;;;5016389;28;20266;-54
2021/12/02 08:42:44;;;;;;;1.83;0.53;;;4.90;99.90;;;;;;5034085;28;20321;-52
2021/12/02 08:45:11;;;;;;;2.30;0.87;;;4.80;99.90;;;;;;5034278;28;20640;-53
2021/12/02 08:47:43;;;;;;;5.07;0.87;;;4.90;99.90;;;;;;5031686;28;20246;-53
2021/12/02 08:50:13;;;;;;;2.27;0.70;;;4.90;99.90;;;;;;5029475;28;20246;-52
2021/12/02 08:52:41;;;;;;;5.37;0.90;;;5.00;99.90;;;;;;5032342;28;20295;-53
2021/12/02 08:55:08;;;;;;;2.77;1.00;;;5.00;99.90;;;;;;5031435;28;20235;-53
2021/12/02 08:57:49;;;;;;;7.80;1.23;;;5.20;99.90;;;;;;5029430;28;20191;-53
2021/12/02 09:00:20;;;;;;;5.20;1.00;;;5.20;99.90;;;;;;5028223;28;20208;-51
2021/12/02 09:02:47;;;;;;;6.10;0.87;;;5.10;99.90;;;;;;5033697;28;20214;-52
2021/12/02 09:05:15;;;;;;;6.63;0.93;;;5.00;99.90;;;;;;5033277;28;20200;-53
2021/12/02 09:07:42;;;;;;;5.20;1.07;;;5.20;99.90;;;;;;5016185;28;20537;-52
2021/12/02 09:10:12;;;;;;;4.90;1.00;;;5.10;99.90;;;;;;5023891;28;20708;-53
2021/12/02 09:12:39;;;;;;;3.90;0.80;;;5.00;99.90;;;;;;5033315;28;20208;-53
2021/12/02 09:15:10;;;;;;;2.63;0.90;;;4.80;99.90;;;;;;5035382;28;20254;-51
2021/12/02 09:17:37;;;;;;;3.87;1.27;;;5.00;99.90;;;;;;5033152;28;21070;-52
2021/12/02 09:20:07;;;;;;;4.00;0.97;;;5.10;99.90;;;;;;5034499;28;20395;-54
2021/12/02 09:22:34;;;;;;;2.30;1.00;;;5.20;99.90;;;;;;5037388;28;20214;-54
2021/12/02 09:25:03;;;;;;;4.63;1.27;;;5.10;99.90;;;;;;5031421;28;20207;-52
2021/12/02 09:27:30;;;;;;;4.13;1.40;;;4.80;99.90;;;;;;5034388;28;20240;-51
2021/12/02 09:29:57;;;;;;;2.83;0.90;;;5.00;99.90;;;;;;5033790;28;20203;-53
2021/12/02 09:32:24;;;;;;;2.67;0.90;;;4.90;99.90;;;;;;5031995;28;20606;-51
2021/12/02 09:34:51;;;;;;;2.50;0.83;;;5.00;99.90;;;;;;5034687;28;20568;-52
2021/12/02 09:37:18;;;;;;;3.73;1.00;;;5.20;99.90;;;;;;5034216;28;20247;-51
2021/12/02 09:39:45;;;;;;;6.30;0.90;;;5.40;99.90;;;;;;5034859;28;20329;-53
2021/12/02 09:42:13;;;;;;;5.17;1.93;;;5.30;99.90;;;;;;5035563;28;20330;-53
2021/12/02 09:45:00;;;;;;;4.30;0.97;;;5.00;99.90;;;;;;5033654;28;20582;-53
2021/12/02 09:47:33;;;;;;;3.00;1.00;;;5.40;99.90;;;;;;5032272;28;20286;-53
2021/12/02 09:50:05;;;;;;;2.70;0.90;;;5.70;99.90;;;;;;5023198;28;20254;-53
2021/12/02 09:52:40;;;;;;;4.23;0.83;;;5.70;99.90;;;;;;5035931;28;20205;-52
2021/12/02 09:55:18;;;;;;;2.50;1.20;;;5.80;99.90;;;;;;5032968;28;20197;-52
2021/12/02 09:57:51;;;;;;;1.93;1.00;;;6.40;99.90;;;;;;5032974;28;20208;-55
2021/12/02 10:00:23;;;;;;;3.07;1.03;;;6.50;99.90;;;;;;5032144;28;20246;-52
2021/12/02 10:02:54;;;;;;;2.67;0.97;;;6.60;99.90;;;;;;5032350;28;20197;-52
2021/12/02 10:05:34;;;;;;;3.00;0.70;;;6.30;99.90;;;;;;5037099;28;20237;-52
2021/12/02 10:08:04;;;;;;;4.63;1.07;;;6.30;99.90;;;;;;5035996;28;20245;-52
2021/12/02 10:10:40;;;;;;;2.73;1.10;;;5.80;99.90;;;;;;5037156;28;20248;-52
2021/12/02 10:13:30;;;;;;;2.90;0.87;;;5.90;99.90;;;;;;5038557;28;20764;-53
2021/12/02 10:16:06;;;;;;;3.53;1.00;;;5.80;99.90;;;;;;5038545;28;20215;-51
2021/12/02 10:18:59;;;;;;;1.10;0.50;;;6.00;99.90;;;;;;5039885;28;20200;-52
2021/12/02 10:21:41;;;;;;;1.33;0.90;;;5.90;99.90;;;;;;5038139;28;20595;-53
2021/12/02 10:24:14;;;;;;;3.97;1.63;;;6.30;99.90;;;;;;5037493;28;20245;-54
2021/12/02 10:26:43;;;;;;;1.77;1.17;;;6.60;99.90;;;;;;5038747;28;20279;-52
2021/12/02 10:29:28;;;;;;;2.83;0.63;;;6.80;99.90;;;;;;5027247;28;20301;-53
2021/12/02 10:32:11;;;;;;;0.73;0.60;;;6.80;99.90;;;;;;5033833;28;20276;-51
2021/12/02 10:35:01;;;;;;;1.17;0.57;;;6.60;99.90;;;;;;5030144;28;20704;-54
2021/12/02 10:37:36;;;;;;;1.43;0.70;;;6.50;99.90;;;;;;5035730;28;20204;-54
2021/12/02 10:40:10;;;;;;;1.13;0.70;;;6.20;99.90;;;;;;5037146;28;20310;-53
2021/12/02 10:42:42;;;;;;;0.90;0.50;;;6.40;99.90;;;;;;5036378;28;20362;-51
2021/12/02 10:45:38;;;;;;;0.97;0.33;;;6.20;99.90;;;;;;5039264;28;20878;-53
2021/12/02 10:48:05;;;;;;;4.47;0.77;;;6.10;99.90;;;;;;5022962;28;20330;-54
2021/12/02 10:50:38;;;;;;;3.17;0.60;;;6.30;99.90;;;;;;5021146;28;20636;-52
2021/12/02 10:53:05;;;;;;;4.43;0.90;;;5.90;99.90;;;;;;5031558;28;20311;-54
2021/12/02 10:55:33;;;;;;;2.83;0.80;;;6.00;99.90;;;;;;5033086;28;20243;-53
2021/12/02 10:58:02;;;;;;;1.43;0.50;;;5.70;99.90;;;;;;5034566;28;20208;-53
2021/12/02 11:00:33;;;;;;;1.70;0.67;;;5.70;99.90;;;;;;5037388;28;20289;-52
2021/12/02 11:03:08;;;;;;;1.33;0.50;;;5.70;99.90;;;;;;5035921;28;20209;-52
2021/12/02 11:05:45;;;;;;;2.83;1.07;;;5.70;99.90;;;;;;5039385;28;20291;-51
2021/12/02 11:08:13;;;;;;;1.50;0.80;;;5.90;99.90;;;;;;5039083;28;20220;-53
2021/12/02 11:10:45;;;;;;;1.60;0.80;;;6.40;99.90;;;;;;5038085;28;20232;-53
2021/12/02 11:13:20;;;;;;;1.33;0.60;;;6.60;99.90;;;;;;5035447;28;20250;-53
2021/12/02 11:15:47;;;;;;;3.20;0.70;;;6.80;99.90;;;;;;5037355;28;20201;-53
2021/12/02 11:18:16;;;;;;;1.60;0.50;;;7.00;99.90;;;;;;5038517;28;20640;-53
2021/12/02 11:20:46;;;;;;;1.07;0.60;;;6.90;99.90;;;;;;5037846;28;20212;-53
2021/12/02 11:23:28;;;;;;;2.17;0.97;;;6.80;99.90;;;;;;5035833;28;20258;-52
2021/12/02 11:26:04;;;;;;;3.03;1.00;;;6.40;99.90;;;;;;5036763;28;20261;-53
2021/12/02 11:28:34;;;;;;;1.93;1.33;;;6.10;99.90;;;;;;5036647;28;20207;-55
2021/12/02 11:31:16;;;;;;;1.10;0.70;;;6.20;99.90;;;;;;5036087;28;20303;-54
2021/12/02 11:33:46;;;;;;;2.10;0.47;;;6.10;99.90;;;;;;5039376;28;20371;-53
2021/12/02 11:36:22;;;;;;;1.10;0.47;;;5.70;99.90;;;;;;5037374;28;20196;-54
2021/12/02 11:38:52;;;;;;;0.77;0.50;;;5.40;99.90;;;;;;5037059;28;20199;-54
2021/12/02 11:41:19;;;;;;;1.00;0.30;;;5.30;99.90;;;;;;5038758;28;20374;-54
2021/12/02 11:43:46;;;;;;;1.00;0.60;;;5.10;99.90;;;;;;5037036;28;20604;-53
2021/12/02 11:46:14;;;;;;;1.47;0.87;;;5.20;99.90;;;;;;5037847;28;20624;-52
2021/12/02 11:48:44;;;;;;;1.00;0.70;;;5.10;99.90;;;;;;5037973;28;20200;-52
2021/12/02 11:51:14;;;;;;;2.03;0.60;;;5.10;99.90;;;;;;5022752;28;20196;-52
2021/12/02 11:53:41;;;;;;;2.80;1.23;;;5.20;99.90;;;;;;5035098;28;20204;-53
2021/12/02 11:56:11;;;;;;;2.70;0.80;;;5.30;99.90;;;;;;5037247;28;20239;-53
2021/12/02 11:58:39;;;;;;;0.70;0.60;;;5.20;99.90;;;;;;5034201;28;20192;-52
2021/12/02 12:01:09;;;;;;;2.80;0.80;;;5.20;99.90;;;;;;5035610;28;20283;-53
2021/12/02 12:03:40;;;;;;;2.37;0.80;;;5.30;99.90;;;;;;5037747;28;20203;-53
2021/12/02 12:06:10;;;;;;;4.50;1.13;;;5.30;99.90;;;;;;5037655;28;20211;-54
2021/12/02 12:08:45;;;;;;;2.70;1.60;;;5.30;99.90;;;;;;5026677;28;20196;-54
2021/12/02 12:11:30;;;;;;;1.87;0.90;;;5.30;99.90;;;;;;5032386;28;20199;-52
2021/12/02 12:14:03;;;;;;;1.63;1.10;;;5.60;99.90;;;;;;5032756;28;20246;-54
2021/12/02 12:16:34;;;;;;;2.27;0.70;;;5.30;99.90;;;;;;5034004;28;20668;-53
2021/12/02 12:19:20;;;;;;;1.90;1.00;;;5.40;99.90;;;;;;5035471;28;20218;-52
2021/12/02 12:21:56;;;;;;;1.27;0.60;;;5.40;99.90;;;;;;5037848;28;20211;-53
2021/12/02 12:24:47;;;;;;;2.37;0.80;;;6.00;99.90;;;;;;5033885;28;20605;-52
2021/12/02 12:27:24;;;;;;;1.77;0.87;;;6.60;99.90;;;;;;5033483;28;20335;-53
2021/12/02 12:30:01;;;;;;;1.10;0.80;;;6.60;99.90;;;;;;5034923;28;20207;-53
2021/12/02 12:35:38;;;;;;;3.00;0.97;;;7.00;99.90;;;;;;5036202;28;20280;-54
2021/12/02 12:38:32;;;;;;;1.80;0.63;;;7.10;99.90;;;;;;5033619;28;20292;-53
2021/12/02 12:41:09;;;;;;;0.80;0.50;;;7.10;99.90;;;;;;5035082;28;20228;-51
2021/12/02 12:43:53;;;;;;;1.47;0.70;;;7.50;99.90;;;;;;5030173;28;20255;-53
2021/12/02 12:46:24;;;;;;;2.00;0.80;;;7.70;99.90;;;;;;5034777;28;20206;-54
2021/12/02 12:48:54;;;;;;;1.30;0.60;;;7.50;99.90;;;;;;5035455;28;20216;-52
2021/12/02 12:51:25;;;;;;;2.93;0.67;;;7.40;99.90;;;;;;5037389;28;20263;-51
2021/12/02 12:53:59;;;;;;;2.60;0.60;;;7.80;99.90;;;;;;5036960;28;20189;-53
2021/12/02 12:56:32;;;;;;;1.80;1.10;;;8.20;99.90;;;;;;5036360;28;20201;-53
2021/12/02 12:59:03;;;;;;;1.30;0.53;;;8.30;99.90;;;;;;5019117;28;20204;-52
2021/12/02 13:01:30;;;;;;;2.57;0.60;;;8.30;99.90;;;;;;5035858;28;20252;-52
2021/12/02 13:04:14;;;;;;;0.83;0.40;;;8.10;99.90;;;;;;5031817;28;20692;-53
2021/12/02 13:07:06;;;;;;;1.43;0.47;;;7.60;99.90;;;;;;5027832;28;20604;-54
2021/12/02 13:09:58;;;;;;;2.67;0.70;;;7.40;99.90;;;;;;5033817;28;20312;-51
2021/12/02 13:12:37;;;;;;;0.83;0.63;;;7.30;99.90;;;;;;5029991;28;20197;-54
2021/12/02 13:15:05;;;;;;;1.03;0.67;;;7.10;99.90;;;;;;5034803;28;20307;-52
2021/12/02 13:17:36;;;;;;;1.57;0.60;;;7.30;99.90;;;;;;5033669;28;20577;-52
2021/12/02 13:20:26;;;;;;;1.37;0.90;;;7.10;99.90;;;;;;5031717;28;20209;-53
2021/12/02 13:23:11;;;;;;;1.73;0.90;;;6.90;99.90;;;;;;5032825;28;20660;-53
2021/12/02 13:25:55;;;;;;;1.07;0.63;;;6.60;99.90;;;;;;5031743;28;20328;-53
2021/12/02 13:28:33;;;;;;;1.07;0.80;;;6.40;99.90;;;;;;5025954;28;20287;-52
2021/12/02 13:31:04;;;;;;;3.00;0.70;;;6.60;99.90;;;;;;5033056;28;20223;-54
2021/12/02 13:33:43;;;;;;;1.20;0.90;;;7.00;23.40;;;;;;5031098;28;20200;-52
2021/12/02 13:36:13;;;;;;;1.50;1.00;;;7.30;1.00;;;;;;5029841;28;20207;-54
2021/12/02 13:38:43;;;;;;;1.13;0.70;;;7.90;1.00;;;;;;5038434;28;20211;-53